Time;durP1;ratioP1;P1;durP2;ratioP2;P2;SDS_P1;SDS_P2;PMS_P1;PMS_P2;Temp;Humidity;BMP_temperature;BMP_pressure;BME280_temperature;BME280_humidity;BME280_pressure;Samples;Min_cycle;Max_cycle;Signal;HPM_P1;HPM_P2
2021/03/01 00:03:47;;;;;;;19.60;7.85;;;;;;;4.16;72.66;102441.97;8596920;33;20171;-72
2021/03/01 00:08:50;;;;;;;13.95;7.25;;;;;;;4.06;72.98;102422.69;8572424;33;20720;-73
2021/03/01 00:13:52;;;;;;;19.40;7.60;;;;;;;4.02;72.76;102423.66;8597931;33;20186;-72
2021/03/01 00:18:55;;;;;;;22.02;7.88;;;;;;;3.94;72.63;102418.50;8572321;33;20593;-71
2021/03/01 00:23:58;;;;;;;17.92;8.07;;;;;;;3.99;72.73;102422.88;8605572;33;20412;-71
2021/03/01 00:29:00;;;;;;;20.60;8.43;;;;;;;3.94;72.86;102423.81;8610479;33;20477;-73
2021/03/01 00:34:02;;;;;;;21.58;8.30;;;;;;;3.98;72.80;102421.09;8588934;33;20128;-72
2021/03/01 00:39:06;;;;;;;22.20;9.05;;;;;;;3.96;72.82;102413.16;8576580;33;20937;-72
2021/03/01 00:44:08;;;;;;;23.80;8.95;;;;;;;4.00;72.55;102427.25;8588041;33;20131;-71
2021/03/01 00:49:12;;;;;;;22.67;9.07;;;;;;;4.00;72.62;102425.47;8591270;33;20147;-71
2021/03/01 00:54:15;;;;;;;20.80;8.95;;;;;;;4.07;72.67;102429.75;8574934;33;20594;-71
2021/03/01 00:59:29;;;;;;;20.52;9.10;;;;;;;4.08;72.49;102420.88;8533786;33;20549;-72
2021/03/01 01:04:44;;;;;;;21.10;7.93;;;;;;;4.06;72.36;102424.47;8598785;33;20639;-71
2021/03/01 01:09:47;;;;;;;22.65;9.02;;;;;;;4.03;72.50;102413.88;8572679;33;20152;-71
2021/03/01 01:14:50;;;;;;;19.77;8.02;;;;;;;4.01;72.39;102410.41;8597197;33;20150;-73
2021/03/01 01:19:52;;;;;;;19.52;8.20;;;;;;;4.03;71.90;102408.56;8600015;33;20471;-71
2021/03/01 01:24:55;;;;;;;17.27;7.50;;;;;;;4.01;72.02;102413.06;8602989;33;20132;-71
2021/03/01 01:29:58;;;;;;;17.98;7.95;;;;;;;4.04;72.24;102411.22;8597511;33;20549;-73
2021/03/01 01:35:00;;;;;;;23.73;8.38;;;;;;;4.05;72.16;102406.75;8573613;33;20436;-71
2021/03/01 01:40:06;;;;;;;14.02;7.07;;;;;;;3.95;72.18;102406.09;8597475;33;20192;-71
2021/03/01 01:45:11;;;;;;;17.02;7.57;;;;;;;3.90;72.33;102413.31;8597742;33;21451;-72
2021/03/01 01:50:14;;;;;;;15.57;7.82;;;;;;;3.86;72.55;102400.97;8597867;33;20744;-71
2021/03/01 01:55:21;;;;;;;14.73;6.70;;;;;;;3.86;72.41;102401.81;8572112;33;20414;-71
2021/03/01 02:00:38;;;;;;;18.42;6.97;;;;;;;3.86;72.69;102399.16;8595703;33;20203;-71
2021/03/01 02:05:41;;;;;;;16.30;7.18;;;;;;;3.84;72.63;102392.13;8594101;33;21103;-71
2021/03/01 02:10:51;;;;;;;18.73;7.05;;;;;;;3.81;72.49;102386.88;8595056;33;20232;-70
2021/03/01 02:15:58;;;;;;;13.75;6.88;;;;;;;3.73;72.56;102382.63;8597291;33;20143;-71
2021/03/01 02:21:09;;;;;;;15.60;7.05;;;;;;;3.71;72.53;102381.75;8598963;33;20190;-71
2021/03/01 02:26:17;;;;;;;16.48;7.18;;;;;;;3.64;72.60;102376.59;8602845;33;21027;-71
2021/03/01 02:31:21;;;;;;;19.95;8.15;;;;;;;3.55;72.90;102380.31;8601424;33;20185;-71
2021/03/01 02:36:27;;;;;;;21.60;8.77;;;;;;;3.62;72.89;102376.66;8599463;33;20424;-71
2021/03/01 02:41:32;;;;;;;19.73;8.15;;;;;;;3.65;72.46;102365.06;8571932;33;21309;-72
2021/03/01 02:46:36;;;;;;;24.83;9.23;;;;;;;3.59;73.06;102371.38;8595260;33;20521;-71
2021/03/01 02:51:43;;;;;;;31.83;10.13;;;;;;;3.72;72.79;102370.22;8595418;33;20492;-71
2021/03/01 02:56:48;;;;;;;20.33;9.30;;;;;;;3.62;72.65;102358.03;8596132;33;20436;-71
2021/03/01 03:01:51;;;;;;;23.38;9.50;;;;;;;3.62;72.79;102365.13;8602105;33;20398;-72
2021/03/01 03:06:55;;;;;;;27.35;10.45;;;;;;;3.67;72.76;102373.88;8601902;33;20136;-71
2021/03/01 03:12:01;;;;;;;25.10;9.45;;;;;;;3.72;72.58;102377.31;8602224;33;20183;-71
2021/03/01 03:17:04;;;;;;;25.50;9.73;;;;;;;3.55;72.63;102356.41;8613315;33;20324;-71
2021/03/01 03:22:07;;;;;;;20.33;8.60;;;;;;;3.54;73.05;102357.31;8602668;33;20592;-72
2021/03/01 03:27:10;;;;;;;28.30;10.50;;;;;;;3.54;73.02;102359.06;8602371;33;22266;-72
2021/03/01 03:32:13;;;;;;;28.13;9.63;;;;;;;3.46;72.88;102365.44;8608576;33;20395;-71
2021/03/01 03:37:22;;;;;;;23.03;9.47;;;;;;;3.44;73.30;102363.72;8619524;33;20154;-72
2021/03/01 03:42:29;;;;;;;22.73;9.57;;;;;;;3.48;73.17;102362.72;8622436;33;21118;-71
2021/03/01 03:47:32;;;;;;;23.35;8.77;;;;;;;3.52;73.30;102360.91;8616226;33;20413;-70
2021/03/01 03:52:39;;;;;;;20.25;9.20;;;;;;;3.55;73.16;102364.38;8610171;33;21932;-71
2021/03/01 03:57:49;;;;;;;23.52;8.30;;;;;;;3.47;73.42;102359.22;8556771;33;20523;-72
2021/03/01 04:02:55;;;;;;;21.30;8.27;;;;;;;3.40;73.37;102370.88;8557699;33;20599;-70
2021/03/01 04:08:00;;;;;;;18.60;7.78;;;;;;;3.41;73.41;102372.63;8561562;33;20444;-71
2021/03/01 04:13:09;;;;;;;19.55;8.70;;;;;;;3.42;73.17;102382.34;8564451;33;21457;-70
2021/03/01 04:18:13;;;;;;;23.00;9.50;;;;;;;3.41;73.38;102379.72;8561156;33;20735;-70
2021/03/01 04:23:17;;;;;;;24.87;10.50;;;;;;;3.40;72.70;102380.59;8560646;33;20184;-70
2021/03/01 04:28:21;;;;;;;25.90;9.90;;;;;;;3.35;72.67;102371.88;8538105;33;20418;-70
2021/03/01 04:33:23;;;;;;;29.97;10.97;;;;;;;3.32;72.81;102367.50;8561430;33;20464;-70
2021/03/01 04:38:25;;;;;;;25.43;10.20;;;;;;;3.32;72.68;102375.47;8560204;33;20768;-71
2021/03/01 04:43:29;;;;;;;28.70;11.47;;;;;;;3.25;72.94;102366.72;8560148;33;20187;-71
2021/03/01 04:48:32;;;;;;;27.37;10.77;;;;;;;3.16;72.87;102374.88;8560344;33;21118;-71
2021/03/01 04:53:35;;;;;;;30.53;12.10;;;;;;;3.13;72.70;102374.94;8574472;33;20210;-71
2021/03/01 04:58:39;;;;;;;29.83;10.70;;;;;;;3.17;72.96;102370.44;8673787;33;20169;-72
2021/03/01 05:03:42;;;;;;;34.05;12.15;;;;;;;3.27;72.65;102372.03;8682953;33;20416;-71
2021/03/01 05:08:46;;;;;;;29.80;10.17;;;;;;;3.33;72.80;102368.38;8653996;33;20229;-71
2021/03/01 05:13:49;;;;;;;29.77;10.60;;;;;;;3.25;72.66;102361.41;8677878;33;21026;-71
2021/03/01 05:18:52;;;;;;;36.03;13.60;;;;;;;3.25;72.61;102368.50;8679929;33;20291;-71
2021/03/01 05:23:54;;;;;;;33.65;11.80;;;;;;;3.23;72.78;102365.88;8682761;33;20425;-72
2021/03/01 05:28:57;;;;;;;24.13;10.47;;;;;;;3.23;72.58;102368.53;8682229;33;20786;-72
2021/03/01 05:33:59;;;;;;;29.90;10.93;;;;;;;3.23;72.59;102373.84;8681821;33;20241;-71
2021/03/01 05:39:02;;;;;;;26.52;9.48;;;;;;;3.30;72.41;102376.41;8684506;33;21140;-72
2021/03/01 05:44:06;;;;;;;26.25;10.60;;;;;;;3.26;72.19;102379.13;8684452;33;20478;-72
2021/03/01 05:49:09;;;;;;;23.57;10.30;;;;;;;3.19;72.89;102385.44;8678308;33;20158;-72
2021/03/01 05:54:13;;;;;;;29.13;11.37;;;;;;;3.25;72.20;102387.09;8661934;33;20433;-72
2021/03/01 05:59:17;;;;;;;29.00;12.48;;;;;;;3.28;72.33;102392.34;8622965;33;20597;-72
2021/03/01 06:04:20;;;;;;;29.95;10.65;;;;;;;3.27;72.33;102396.78;8622360;33;21171;-71
2021/03/01 06:09:22;;;;;;;30.30;10.80;;;;;;;3.26;72.58;102392.41;8617039;33;20397;-72
2021/03/01 06:14:25;;;;;;;29.02;10.48;;;;;;;3.28;72.14;102395.00;8606539;33;20211;-71
2021/03/01 06:19:44;;;;;;;29.33;11.17;;;;;;;3.28;72.64;102395.88;8615746;33;20246;-73
2021/03/01 06:25:06;;;;;;;28.02;10.00;;;;;;;3.31;72.29;102396.75;8619010;33;20150;-71
2021/03/01 06:30:11;;;;;;;25.90;9.77;;;;;;;3.31;72.45;102396.75;8618403;33;20190;-71
2021/03/01 06:35:29;;;;;;;28.70;10.67;;;;;;;3.24;72.59;102383.56;8613645;33;20467;-71
2021/03/01 06:40:31;;;;;;;25.08;10.13;;;;;;;3.24;72.76;102390.69;8603851;33;21179;-71
2021/03/01 06:45:34;;;;;;;24.83;10.05;;;;;;;3.19;72.32;102392.53;8602623;33;20255;-71
2021/03/01 06:50:43;;;;;;;23.05;9.40;;;;;;;3.18;72.58;102389.00;8602559;33;21948;-71
2021/03/01 06:55:59;;;;;;;22.67;8.33;;;;;;;3.04;72.41;102383.03;8601865;33;20472;-71
2021/03/01 07:01:06;;;;;;;28.70;10.67;;;;;;;3.15;72.34;102388.16;8601975;33;20467;-72
2021/03/01 07:06:09;;;;;;;24.25;8.05;;;;;;;3.24;72.24;102388.88;8602498;33;20417;-72
2021/03/01 07:11:25;;;;;;;21.10;8.40;;;;;;;3.36;72.21;102394.88;8615039;33;20775;-72
2021/03/01 07:16:29;;;;;;;22.90;8.67;;;;;;;3.31;71.75;102396.75;8617850;33;20143;-71
2021/03/01 07:21:32;;;;;;;26.42;8.27;;;;;;;3.46;71.76;102397.34;8619477;33;20402;-71
2021/03/01 07:26:35;;;;;;;16.73;7.60;;;;;;;3.67;70.57;102405.78;8629953;33;20438;-71
2021/03/01 07:31:43;;;;;;;18.48;8.05;;;;;;;3.62;70.25;102397.00;8622720;33;21067;-71
2021/03/01 07:36:46;;;;;;;13.70;6.50;;;;;;;3.81;70.05;102397.50;8635923;33;20491;-71
2021/03/01 07:41:49;;;;;;;14.90;7.32;;;;;;;4.00;69.25;102387.38;8623677;33;20170;-70
2021/03/01 07:46:53;;;;;;;16.50;7.55;;;;;;;4.07;68.94;102389.88;8631102;33;20769;-70
2021/03/01 07:51:55;;;;;;;17.83;7.85;;;;;;;4.11;68.74;102399.53;8628951;33;20225;-70
2021/03/01 07:56:57;;;;;;;18.17;7.45;;;;;;;4.02;68.89;102397.06;8612448;33;20186;-71
2021/03/01 08:02:16;;;;;;;16.90;8.05;;;;;;;4.00;68.90;102395.34;8612462;33;20588;-70
2021/03/01 08:07:38;;;;;;;21.13;8.70;;;;;;;4.06;69.09;102401.44;8599833;33;20175;-71
2021/03/01 08:12:59;;;;;;;18.90;8.23;;;;;;;4.18;68.75;102401.13;8600470;33;20190;-71
2021/03/01 08:18:04;;;;;;;17.08;8.02;;;;;;;4.24;68.47;102404.56;8603179;33;20335;-70
2021/03/01 08:23:32;;;;;;;20.92;8.35;;;;;;;4.30;68.10;102410.63;8600539;33;20403;-70
2021/03/01 08:29:03;;;;;;;22.13;8.80;;;;;;;4.35;67.97;102415.84;8571645;33;20410;-70
2021/03/01 08:34:30;;;;;;;21.33;8.40;;;;;;;4.38;67.85;102421.09;8600425;33;20955;-72
2021/03/01 08:39:57;;;;;;;23.40;9.27;;;;;;;4.35;67.81;102422.03;8597349;33;20408;-71
2021/03/01 08:45:00;;;;;;;24.50;9.18;;;;;;;4.00;67.78;102414.84;8610072;33;20265;-71
2021/03/01 08:50:05;;;;;;;24.00;11.98;;;;;;;3.98;68.43;102424.66;8601593;33;20186;-70
2021/03/01 08:55:08;;;;;;;23.60;8.57;;;;;;;3.70;69.52;102427.88;8616346;33;20343;-70
2021/03/01 09:00:13;;;;;;;17.35;7.63;;;;;;;3.86;69.26;102422.22;8584772;33;20433;-70
2021/03/01 09:05:18;;;;;;;16.85;7.50;;;;;;;3.99;69.19;102420.19;8619513;33;20441;-71
2021/03/01 09:10:35;;;;;;;22.33;9.85;;;;;;;4.22;68.46;102425.88;8620439;33;20463;-72
2021/03/01 09:15:38;;;;;;;20.13;8.90;;;;;;;4.16;68.08;102428.69;8598265;33;20182;-72
2021/03/01 09:20:46;;;;;;;18.73;8.32;;;;;;;3.99;69.06;102422.88;8653796;33;20186;-72
2021/03/01 09:25:49;;;;;;;20.00;8.27;;;;;;;4.26;68.73;102419.59;8632737;33;20852;-72
2021/03/01 09:31:04;;;;;;;19.45;8.07;;;;;;;4.49;68.14;102413.75;8618088;33;20521;-72
2021/03/01 09:36:09;;;;;;;18.88;8.98;;;;;;;4.23;67.59;102418.81;8604667;33;20391;-71
2021/03/01 09:41:12;;;;;;;18.70;8.25;;;;;;;4.37;67.91;102406.06;8589574;33;20971;-72
2021/03/01 09:46:15;;;;;;;23.80;9.68;;;;;;;4.38;67.45;102413.13;8603745;33;20200;-71
2021/03/01 09:51:19;;;;;;;23.42;10.02;;;;;;;4.31;67.54;102424.84;8614876;33;20151;-70
2021/03/01 09:56:22;;;;;;;20.05;9.23;;;;;;;4.00;67.98;102429.91;8599766;33;20194;-71
2021/03/01 10:01:27;;;;;;;17.15;7.45;;;;;;;4.06;68.14;102414.72;8612085;33;20444;-71
2021/03/01 10:06:33;;;;;;;17.83;8.40;;;;;;;4.46;67.61;102416.47;8647302;33;20694;-71
2021/03/01 10:11:37;;;;;;;15.93;7.75;;;;;;;4.88;66.41;102405.69;8620719;33;20241;-71
2021/03/01 10:16:41;;;;;;;22.45;9.63;;;;;;;5.20;65.28;102410.25;8577454;33;20415;-72
2021/03/01 10:21:46;;;;;;;17.15;8.85;;;;;;;5.13;65.25;102418.44;8573957;33;20428;-73
2021/03/01 10:26:51;;;;;;;20.23;9.05;;;;;;;5.17;65.38;102404.13;8602465;33;20444;-71
2021/03/01 10:31:54;;;;;;;16.15;7.72;;;;;;;5.22;64.58;102411.09;8595982;33;20146;-70
2021/03/01 10:36:58;;;;;;;24.33;10.05;;;;;;;5.25;64.58;102416.31;8594494;33;20409;-71
2021/03/01 10:42:10;;;;;;;26.90;9.35;;;;;;;5.12;64.69;102411.34;8593746;33;20688;-72
2021/03/01 10:47:15;;;;;;;23.45;9.80;;;;;;;4.96;65.34;102413.50;8588417;33;20453;-72
2021/03/01 10:52:20;;;;;;;20.70;9.13;;;;;;;5.21;64.86;102417.34;8643913;33;21921;-71
2021/03/01 10:57:26;;;;;;;26.55;9.98;;;;;;;5.12;64.77;102406.91;8593539;33;21920;-70
2021/03/01 11:02:29;;;;;;;23.50;9.68;;;;;;;5.37;64.40;102406.25;8564004;33;20835;-71
2021/03/01 11:07:32;;;;;;;19.33;8.52;;;;;;;5.62;63.87;102406.44;8563760;33;22360;-71
2021/03/01 11:12:35;;;;;;;25.13;10.07;;;;;;;5.75;62.90;102407.84;8588130;33;20452;-71
2021/03/01 11:17:38;;;;;;;26.45;10.68;;;;;;;5.75;62.74;102399.84;8566301;33;20556;-73
2021/03/01 11:22:41;;;;;;;24.65;10.63;;;;;;;6.08;62.18;102397.97;8592475;33;20155;-71
2021/03/01 11:27:43;;;;;;;25.75;10.45;;;;;;;5.63;62.76;102395.75;8564135;33;20144;-70
2021/03/01 11:32:46;;;;;;;29.10;10.15;;;;;;;5.76;62.81;102392.72;8593650;33;20144;-70
2021/03/01 11:37:49;;;;;;;20.73;8.40;;;;;;;5.70;62.91;102383.09;8592865;33;20433;-72
2021/03/01 11:42:51;;;;;;;18.27;7.18;;;;;;;5.77;62.36;102370.47;8594788;33;20895;-71
2021/03/01 11:47:53;;;;;;;19.75;8.85;;;;;;;6.06;62.51;102366.91;8575663;33;20147;-71
2021/03/01 11:52:57;;;;;;;20.48;8.43;;;;;;;6.21;61.95;102362.91;8603677;33;20516;-71
2021/03/01 11:57:59;;;;;;;23.17;10.73;;;;;;;6.14;61.64;102348.88;8605395;33;20429;-71
2021/03/01 12:03:02;;;;;;;19.50;7.47;;;;;;;6.12;62.46;102346.28;8624821;33;20221;-71
2021/03/01 12:08:07;;;;;;;15.30;6.47;;;;;;;6.54;61.99;102348.47;8630207;33;20246;-70
2021/03/01 12:13:10;;;;;;;11.80;5.20;;;;;;;6.76;60.64;102337.09;8625322;33;20407;-70
2021/03/01 12:18:12;;;;;;;17.35;6.72;;;;;;;6.73;60.92;102337.19;8620573;33;22018;-71
2021/03/01 12:23:15;;;;;;;14.13;6.28;;;;;;;6.98;60.47;102331.91;8619457;33;20130;-70
2021/03/01 12:28:17;;;;;;;13.98;6.97;;;;;;;7.29;59.53;102331.66;8642132;33;20146;-70
2021/03/01 12:33:22;;;;;;;12.77;6.22;;;;;;;6.76;60.65;102327.25;8645830;33;20571;-71
2021/03/01 12:38:25;;;;;;;11.07;5.32;;;;;;;6.43;61.45;102317.72;8658095;33;20683;-71
2021/03/01 12:43:28;;;;;;;13.18;5.75;;;;;;;6.47;62.51;102314.88;8617823;33;20201;-71
2021/03/01 12:48:30;;;;;;;9.57;5.05;;;;;;;6.87;60.90;102318.91;8617588;33;20400;-73
2021/03/01 12:53:34;;;;;;;10.80;4.88;;;;;;;6.73;60.40;102310.47;8582587;33;21140;-72
2021/03/01 12:58:37;;;;;;;9.52;5.10;;;;;;;6.71;61.20;102309.66;8619557;33;20549;-71
2021/03/01 13:03:39;;;;;;;9.93;5.20;;;;;;;6.72;61.18;102308.72;8640618;33;20686;-71
2021/03/01 13:08:44;;;;;;;12.45;4.70;;;;;;;6.42;61.62;102295.50;8639287;33;20278;-70
2021/03/01 13:13:47;;;;;;;9.05;4.95;;;;;;;6.76;61.26;102300.56;8657380;33;20185;-72
2021/03/01 13:18:49;;;;;;;8.60;4.80;;;;;;;6.34;62.14;102284.19;8674886;33;20410;-72
2021/03/01 13:23:52;;;;;;;12.10;5.78;;;;;;;6.88;61.26;102288.59;8649355;33;20451;-72
2021/03/01 13:28:56;;;;;;;9.10;5.25;;;;;;;7.10;61.34;102280.69;8617424;33;20426;-70
2021/03/01 13:33:58;;;;;;;10.25;5.80;;;;;;;9.60;54.96;102264.94;8618225;33;20186;-72
2021/03/01 13:39:01;;;;;;;7.45;4.35;;;;;;;11.24;49.79;102255.78;8620861;33;20179;-70
2021/03/01 13:44:04;;;;;;;8.75;5.00;;;;;;;13.46;44.38;102252.66;8597903;33;20903;-71
2021/03/01 13:49:12;;;;;;;7.15;4.43;;;;;;;15.31;40.66;102252.78;8599778;33;20415;-70
2021/03/01 13:54:15;;;;;;;9.38;4.70;;;;;;;15.52;40.36;102246.81;8623724;33;22012;-72
2021/03/01 13:59:17;;;;;;;10.30;5.13;;;;;;;16.66;37.84;102245.47;8629079;33;20429;-71
2021/03/01 14:04:19;;;;;;;9.07;5.38;;;;;;;17.32;36.70;102245.69;8632400;33;20660;-71
2021/03/01 14:09:23;;;;;;;8.80;4.63;;;;;;;17.22;36.33;102232.00;8629526;33;22378;-71
2021/03/01 14:14:25;;;;;;;7.80;4.38;;;;;;;16.69;37.25;102233.50;8680725;33;20458;-71
2021/03/01 14:19:27;;;;;;;6.15;4.25;;;;;;;16.91;36.97;102219.09;8685605;33;20284;-70
2021/03/01 14:24:30;;;;;;;7.78;4.78;;;;;;;17.11;36.42;102220.22;8706093;33;20146;-71
2021/03/01 14:29:32;;;;;;;8.00;4.55;;;;;;;16.63;37.28;102223.13;8761095;33;20731;-71
2021/03/01 14:34:35;;;;;;;9.48;4.68;;;;;;;17.05;36.78;102210.72;8698926;33;20221;-71
2021/03/01 14:39:39;;;;;;;9.95;5.07;;;;;;;17.40;36.54;102210.63;8688661;33;20150;-71
2021/03/01 14:44:41;;;;;;;8.30;4.80;;;;;;;17.14;36.99;102207.31;8641550;33;20136;-72
2021/03/01 14:49:43;;;;;;;8.48;5.13;;;;;;;16.02;38.82;102206.97;8629975;33;20241;-71
2021/03/01 14:54:46;;;;;;;12.00;6.40;;;;;;;15.70;39.22;102202.97;8625253;33;20636;-72
2021/03/01 14:59:48;;;;;;;11.02;5.20;;;;;;;14.96;40.41;102198.44;8624411;33;20636;-70
2021/03/01 15:04:51;;;;;;;10.40;5.65;;;;;;;13.85;43.13;102199.72;8622304;33;20436;-70
2021/03/01 15:09:55;;;;;;;9.07;5.57;;;;;;;13.10;44.70;102186.53;8618267;33;20543;-71
2021/03/01 15:14:57;;;;;;;7.78;4.90;;;;;;;12.77;45.35;102189.50;8617510;33;20155;-70
2021/03/01 15:19:59;;;;;;;10.05;5.30;;;;;;;13.03;45.30;102187.91;8716237;33;20651;-71
2021/03/01 15:25:03;;;;;;;9.77;5.68;;;;;;;12.59;45.84;102202.31;8626021;33;20183;-71
2021/03/01 15:30:07;;;;;;;10.13;5.88;;;;;;;12.34;46.66;102192.09;8681154;33;20218;-70
2021/03/01 15:35:29;;;;;;;14.05;6.95;;;;;;;12.21;47.48;102189.28;8852738;33;20222;-71
2021/03/01 15:40:32;;;;;;;10.60;5.50;;;;;;;12.18;47.07;102186.75;8856557;33;20316;-70
2021/03/01 15:45:34;;;;;;;10.82;6.00;;;;;;;11.95;47.71;102180.88;8856683;33;20621;-70
2021/03/01 15:50:37;;;;;;;11.85;6.18;;;;;;;11.65;48.51;102179.97;8855940;33;20281;-71
2021/03/01 15:55:40;;;;;;;12.70;5.75;;;;;;;11.43;49.13;102177.63;8841036;33;20152;-71
2021/03/01 16:00:43;;;;;;;10.43;5.55;;;;;;;10.64;50.79;102178.31;8650634;33;20140;-71
2021/03/01 16:06:07;;;;;;;13.75;7.25;;;;;;;10.29;52.16;102175.66;8623780;33;20388;-70
2021/03/01 16:11:10;;;;;;;11.90;5.95;;;;;;;10.14;52.52;102169.22;8595324;33;20441;-71
2021/03/01 16:16:12;;;;;;;11.57;6.30;;;;;;;10.11;52.32;102169.41;8620013;33;20421;-70
2021/03/01 16:21:15;;;;;;;12.88;5.93;;;;;;;10.25;52.05;102168.69;8624656;33;21871;-71
2021/03/01 16:26:18;;;;;;;14.00;6.65;;;;;;;9.99;51.17;102163.78;8624497;33;21108;-71
2021/03/01 16:31:26;;;;;;;14.77;6.25;;;;;;;9.72;50.64;102156.13;8625604;33;20420;-72
2021/03/01 16:36:32;;;;;;;12.67;6.80;;;;;;;9.20;51.39;102154.16;8624920;33;20615;-71
2021/03/01 16:41:36;;;;;;;13.68;6.60;;;;;;;9.06;52.36;102159.28;8627099;33;20147;-72
2021/03/01 16:46:40;;;;;;;15.73;7.60;;;;;;;8.72;53.26;102166.22;8621583;33;20433;-70
2021/03/01 16:51:43;;;;;;;17.20;7.72;;;;;;;8.18;54.29;102168.53;8618948;33;20246;-71
2021/03/01 16:56:47;;;;;;;16.67;7.30;;;;;;;7.82;55.41;102170.06;8616382;33;20661;-71
2021/03/01 17:01:52;;;;;;;15.75;8.20;;;;;;;7.44;56.14;102167.13;8604652;33;20138;-71
2021/03/01 17:07:01;;;;;;;18.50;8.65;;;;;;;7.03;57.89;102165.13;8580215;33;20445;-72
2021/03/01 17:12:10;;;;;;;20.88;9.88;;;;;;;6.81;58.80;102175.72;8605654;33;21499;-71
2021/03/01 17:17:22;;;;;;;16.77;8.48;;;;;;;6.58;59.83;102175.66;8578505;33;20178;-71
2021/03/01 17:22:25;;;;;;;20.85;10.63;;;;;;;6.37;60.70;102186.19;8604185;33;20490;-70
2021/03/01 17:27:29;;;;;;;22.60;9.63;;;;;;;6.26;61.13;102190.16;8630719;33;20854;-71
2021/03/01 17:32:32;;;;;;;18.83;9.55;;;;;;;6.14;61.67;102183.41;8643662;33;20552;-70
2021/03/01 17:37:37;;;;;;;22.42;10.93;;;;;;;6.01;62.33;102187.44;8629817;33;20414;-71
2021/03/01 17:42:42;;;;;;;23.10;11.05;;;;;;;5.86;62.90;102187.00;8619426;33;20261;-71
2021/03/01 17:47:56;;;;;;;27.45;12.20;;;;;;;5.82;62.85;102189.84;8606560;33;20143;-72
2021/03/01 17:53:03;;;;;;;24.02;12.13;;;;;;;5.71;63.37;102190.19;8624103;33;20431;-71
2021/03/01 17:58:13;;;;;;;28.00;13.00;;;;;;;5.60;63.97;102195.88;8627344;33;20157;-71
2021/03/01 18:03:18;;;;;;;27.48;12.45;;;;;;;5.54;64.27;102200.50;8616589;33;20179;-73
2021/03/01 18:08:23;;;;;;;28.98;13.75;;;;;;;5.45;64.64;102199.00;8613540;33;20147;-71
2021/03/01 18:13:28;;;;;;;20.88;11.80;;;;;;;5.36;64.71;102193.97;8604896;33;20191;-72
2021/03/01 18:18:31;;;;;;;28.77;12.20;;;;;;;5.28;65.03;102194.19;8547711;33;20293;-71
2021/03/01 18:23:38;;;;;;;26.90;12.95;;;;;;;5.26;65.25;102190.69;8545009;33;20527;-71
2021/03/01 18:28:44;;;;;;;27.35;13.32;;;;;;;5.20;65.30;102186.41;8540937;33;20230;-72
2021/03/01 18:34:02;;;;;;;26.95;12.80;;;;;;;5.12;65.36;102179.56;8542022;33;20282;-72
2021/03/01 18:39:08;;;;;;;25.95;13.63;;;;;;;5.05;65.13;102177.09;8567595;33;20592;-72
2021/03/01 18:44:14;;;;;;;31.30;13.05;;;;;;;4.75;66.57;102177.94;8570369;33;20435;-72
2021/03/01 18:49:19;;;;;;;31.67;13.95;;;;;;;4.71;66.75;102176.28;8564339;33;20147;-73
2021/03/01 18:54:21;;;;;;;29.33;13.63;;;;;;;4.64;66.79;102180.03;8571646;33;20152;-73
2021/03/01 18:59:24;;;;;;;29.38;14.70;;;;;;;4.53;67.16;102181.19;8570436;33;20183;-72
2021/03/01 19:04:27;;;;;;;30.42;14.80;;;;;;;4.49;67.62;102176.84;8545772;33;20430;-72
2021/03/01 19:09:29;;;;;;;28.58;13.45;;;;;;;4.44;67.77;102170.78;8546985;33;21969;-73
2021/03/01 19:14:32;;;;;;;34.87;16.57;;;;;;;4.37;68.19;102178.06;8546805;33;20441;-72
2021/03/01 19:19:34;;;;;;;35.10;15.38;;;;;;;4.34;68.34;102175.50;8543910;33;20159;-72
2021/03/01 19:24:37;;;;;;;31.73;15.00;;;;;;;4.30;68.24;102168.50;8544829;33;20448;-72
2021/03/01 19:29:41;;;;;;;34.40;17.27;;;;;;;4.24;68.29;102173.97;8542220;33;20152;-73
2021/03/01 19:34:43;;;;;;;34.40;16.40;;;;;;;4.18;68.51;102167.03;8541474;33;20144;-72
2021/03/01 19:39:46;;;;;;;37.20;17.48;;;;;;;4.13;68.71;102168.06;8593140;33;20221;-73
2021/03/01 19:44:49;;;;;;;32.90;15.90;;;;;;;4.13;68.61;102170.72;8594099;33;20469;-73
2021/03/01 19:49:51;;;;;;;33.38;16.17;;;;;;;4.08;68.96;102165.50;8548732;33;20925;-72
2021/03/01 19:54:53;;;;;;;30.70;14.20;;;;;;;3.96;68.60;102165.84;8535247;33;20448;-72
2021/03/01 19:59:57;;;;;;;28.50;14.60;;;;;;;3.89;68.73;102172.22;8582843;33;20559;-72
2021/03/01 20:04:59;;;;;;;28.48;13.82;;;;;;;3.87;68.64;102164.28;8560933;33;20269;-72
2021/03/01 20:10:02;;;;;;;29.90;14.93;;;;;;;3.84;68.96;102156.38;8537383;33;20239;-72
2021/03/01 20:15:08;;;;;;;31.70;15.63;;;;;;;3.77;69.15;102168.06;8534097;33;20251;-72
2021/03/01 20:20:11;;;;;;;31.00;13.93;;;;;;;3.66;69.10;102157.69;8529759;33;21294;-72
2021/03/01 20:25:15;;;;;;;31.00;16.35;;;;;;;3.57;68.69;102159.72;8521154;33;20176;-72
2021/03/01 20:30:20;;;;;;;35.55;17.23;;;;;;;3.52;69.38;102162.47;8518460;33;20147;-72
2021/03/01 20:35:22;;;;;;;28.95;15.77;;;;;;;3.41;69.17;102159.19;8522353;33;20415;-72
2021/03/01 20:40:25;;;;;;;32.20;15.23;;;;;;;3.37;69.52;102152.19;8529275;33;20132;-71
2021/03/01 20:45:28;;;;;;;33.90;15.73;;;;;;;3.37;69.50;102165.47;8522665;33;20491;-73
2021/03/01 20:50:30;;;;;;;30.15;15.50;;;;;;;3.33;70.03;102159.34;8562495;33;21280;-72
2021/03/01 20:55:32;;;;;;;29.58;13.90;;;;;;;3.40;70.21;102160.97;8536603;33;20198;-71
2021/03/01 21:00:36;;;;;;;26.45;13.48;;;;;;;3.47;70.05;102161.69;8544193;33;20183;-72
2021/03/01 21:05:38;;;;;;;25.33;13.30;;;;;;;3.39;69.96;102161.88;8544479;33;20497;-73
2021/03/01 21:10:41;;;;;;;27.77;14.00;;;;;;;3.32;70.16;102156.72;8524147;33;20412;-71
2021/03/01 21:15:45;;;;;;;31.17;13.63;;;;;;;3.30;70.38;102162.09;8530599;33;20442;-73
2021/03/01 21:20:48;;;;;;;31.50;14.05;;;;;;;3.30;70.44;102166.53;8531290;33;20688;-72
2021/03/01 21:25:54;;;;;;;28.70;13.43;;;;;;;3.19;70.02;102156.16;8532716;33;20636;-72
2021/03/01 21:30:57;;;;;;;32.40;15.77;;;;;;;3.08;69.90;102169.66;8547281;33;20442;-71
2021/03/01 21:36:02;;;;;;;30.58;15.25;;;;;;;3.03;70.36;102166.22;8568410;33;20460;-70
2021/03/01 21:41:06;;;;;;;28.88;15.93;;;;;;;2.99;70.63;102162.75;8547269;33;20168;-72
2021/03/01 21:46:10;;;;;;;32.10;15.70;;;;;;;2.83;70.44;102159.53;8545100;33;20791;-71
2021/03/01 21:51:12;;;;;;;30.42;15.00;;;;;;;2.73;70.72;102157.97;8540261;33;20148;-72
2021/03/01 21:56:16;;;;;;;28.00;14.05;;;;;;;2.68;71.07;102164.28;8570082;33;20555;-71
2021/03/01 22:01:21;;;;;;;28.15;14.13;;;;;;;2.68;71.31;102165.16;8590201;33;20155;-71
2021/03/01 22:06:24;;;;;;;29.13;13.50;;;;;;;2.66;71.56;102163.44;8528831;33;20437;-71
2021/03/01 22:11:29;;;;;;;30.33;13.30;;;;;;;2.60;71.25;102153.81;8532244;33;20195;-71
2021/03/01 22:16:32;;;;;;;35.20;15.20;;;;;;;2.57;71.33;102159.19;8512508;33;21225;-71
2021/03/01 22:21:35;;;;;;;30.75;13.63;;;;;;;2.51;71.33;102159.28;8541249;33;20946;-71
2021/03/01 22:26:47;;;;;;;23.60;12.50;;;;;;;2.43;71.43;102156.75;8517193;33;20419;-72
2021/03/01 22:31:56;;;;;;;31.52;13.07;;;;;;;2.43;71.76;102151.44;8539536;33;20403;-71
2021/03/01 22:37:06;;;;;;;26.60;13.37;;;;;;;2.44;71.92;102155.88;8539444;33;20429;-71
2021/03/01 22:42:10;;;;;;;30.08;13.25;;;;;;;2.43;71.72;102154.09;8536692;33;20183;-72
2021/03/01 22:47:15;;;;;;;28.57;14.43;;;;;;;2.51;72.02;102161.91;8516909;33;20148;-73
2021/03/01 22:52:18;;;;;;;32.15;15.15;;;;;;;2.63;71.74;102159.06;8543634;33;20179;-71
2021/03/01 22:57:22;;;;;;;32.00;15.30;;;;;;;2.52;71.68;102159.22;8541934;33;21144;-72
2021/03/01 23:02:25;;;;;;;28.85;14.00;;;;;;;2.40;71.32;102160.34;8542834;33;20187;-72
2021/03/01 23:07:28;;;;;;;29.50;13.60;;;;;;;2.19;72.34;102160.72;8542118;33;20167;-72
2021/03/01 23:12:30;;;;;;;28.40;13.38;;;;;;;2.25;72.06;102159.75;8544104;33;20432;-71
2021/03/01 23:17:33;;;;;;;26.55;12.75;;;;;;;2.22;71.97;102158.00;8545828;33;20415;-71
2021/03/01 23:22:35;;;;;;;25.88;13.35;;;;;;;2.03;72.77;102161.91;8542084;33;20151;-72
2021/03/01 23:27:39;;;;;;;26.55;12.30;;;;;;;2.00;72.59;102162.81;8538688;33;20412;-72
2021/03/01 23:32:42;;;;;;;26.02;13.52;;;;;;;1.99;72.73;102154.91;8539281;33;20418;-71